Time;durP1;ratioP1;P1;durP2;ratioP2;P2;SDS_P1;SDS_P2;PMS_P1;PMS_P2;Temp;Humidity;BMP_temperature;BMP_pressure;BME280_temperature;BME280_humidity;BME280_pressure;Samples;Min_cycle;Max_cycle;Signal;HPM_P1;HPM_P2
2021/06/24 04:01:55;;;;;;;6.43;5.87;;;18.20;99.90;;;;;;5294567;23;20500;-60
2021/06/24 04:04:22;;;;;;;5.70;5.30;;;18.20;99.90;;;;;;4997988;28;20453;-61
2021/06/24 04:06:48;;;;;;;7.50;6.80;;;18.00;99.90;;;;;;4998007;28;20453;-60
2021/06/24 04:09:15;;;;;;;6.43;5.93;;;17.90;99.90;;;;;;4997921;28;20453;-60
2021/06/24 04:11:42;;;;;;;7.70;6.90;;;18.00;99.90;;;;;;4997962;28;20503;-60
2021/06/24 04:14:09;;;;;;;11.83;6.93;;;18.00;99.90;;;;;;4997696;28;20481;-60
2021/06/24 04:16:35;;;;;;;7.73;6.80;;;18.00;99.90;;;;;;4997666;28;20453;-60
2021/06/24 04:19:04;;;;;;;7.27;6.67;;;18.10;99.90;;;;;;4998362;28;20485;-60
2021/06/24 04:21:30;;;;;;;6.90;6.40;;;18.20;99.90;;;;;;4997455;28;20480;-61
2021/06/24 04:23:57;;;;;;;7.47;6.87;;;18.20;99.90;;;;;;4998540;28;20457;-61
2021/06/24 04:26:24;;;;;;;7.40;6.70;;;18.20;99.90;;;;;;4997247;28;20956;-60
2021/06/24 04:28:51;;;;;;;8.00;7.30;;;18.20;99.90;;;;;;4997732;28;20454;-60
2021/06/24 04:31:17;;;;;;;8.60;7.80;;;18.20;99.90;;;;;;4997356;28;20484;-61
2021/06/24 04:33:44;;;;;;;7.90;7.30;;;18.30;99.90;;;;;;4997322;28;20457;-61
2021/06/24 04:36:12;;;;;;;7.90;7.40;;;18.30;99.90;;;;;;4997047;28;20949;-60
2021/06/24 04:38:39;;;;;;;7.93;7.33;;;18.40;99.90;;;;;;4996823;28;20446;-60
2021/06/24 04:41:06;;;;;;;8.20;7.50;;;18.40;99.90;;;;;;4997178;28;20473;-62
2021/06/24 04:43:32;;;;;;;9.00;8.20;;;18.50;99.90;;;;;;4997237;28;20472;-61
2021/06/24 04:45:59;;;;;;;8.60;7.90;;;18.50;99.90;;;;;;4996972;28;20460;-60
2021/06/24 04:48:26;;;;;;;8.43;7.77;;;18.60;99.90;;;;;;4997020;28;20453;-61
2021/06/24 04:50:52;;;;;;;7.40;6.80;;;18.70;99.90;;;;;;4996623;28;20936;-60
2021/06/24 04:53:20;;;;;;;7.70;7.10;;;18.70;99.90;;;;;;4997002;28;20464;-61
2021/06/24 04:55:47;;;;;;;8.10;7.40;;;18.70;99.90;;;;;;4998851;28;20458;-62
2021/06/24 04:58:14;;;;;;;8.40;7.03;;;18.80;99.90;;;;;;4999836;28;20454;-60
2021/06/24 05:00:41;;;;;;;7.87;7.17;;;18.90;99.90;;;;;;4997482;28;20833;-61
2021/06/24 05:03:10;;;;;;;6.90;6.40;;;18.90;99.90;;;;;;4997462;28;20514;-61
2021/06/24 05:05:37;;;;;;;6.97;6.33;;;19.10;99.90;;;;;;4997105;28;20458;-61
2021/06/24 05:08:09;;;;;;;10.40;8.60;;;19.30;99.90;;;;;;4996680;28;20449;-60
2021/06/24 05:10:37;;;;;;;6.13;5.73;;;19.30;99.90;;;;;;4996900;28;20469;-61
2021/06/24 05:13:04;;;;;;;7.23;6.10;;;19.50;99.90;;;;;;4996796;28;20461;-61
2021/06/24 05:15:31;;;;;;;5.27;4.97;;;19.60;99.90;;;;;;4996774;28;20821;-61
2021/06/24 05:17:58;;;;;;;6.47;5.93;;;19.80;99.90;;;;;;4996626;28;20458;-61
2021/06/24 05:20:25;;;;;;;5.90;5.50;;;20.00;99.90;;;;;;4996946;28;20492;-62
2021/06/24 05:22:52;;;;;;;5.67;5.17;;;20.20;99.90;;;;;;4997114;28;20461;-61
2021/06/24 05:25:18;;;;;;;6.90;6.40;;;20.40;99.90;;;;;;4996405;28;20790;-61
2021/06/24 05:27:46;;;;;;;7.43;6.83;;;20.40;99.90;;;;;;4996517;28;20480;-60
2021/06/24 05:30:14;;;;;;;6.40;6.00;;;20.50;99.90;;;;;;4996304;28;20450;-60
2021/06/24 05:32:41;;;;;;;6.70;6.20;;;20.60;99.90;;;;;;4996848;28;20877;-61
2021/06/24 05:35:08;;;;;;;7.10;6.50;;;20.60;99.90;;;;;;4996247;28;21005;-60
2021/06/24 05:37:35;;;;;;;8.17;7.57;;;20.40;99.90;;;;;;4996628;28;20454;-61
2021/06/24 05:40:03;;;;;;;7.00;6.40;;;20.60;99.90;;;;;;4997039;28;20482;-61
2021/06/24 05:42:30;;;;;;;6.77;6.17;;;20.60;99.90;;;;;;4997378;28;20500;-62
2021/06/24 05:44:58;;;;;;;7.30;6.80;;;20.70;99.90;;;;;;5008747;28;20464;-60
2021/06/24 05:47:25;;;;;;;6.83;6.30;;;20.70;99.90;;;;;;5009012;28;20453;-60
2021/06/24 05:49:51;;;;;;;7.60;7.10;;;20.80;99.90;;;;;;5011153;28;20481;-61
2021/06/24 05:52:18;;;;;;;7.30;6.60;;;20.70;99.90;;;;;;5006461;28;20469;-61
2021/06/24 05:54:45;;;;;;;6.30;5.80;;;20.70;99.90;;;;;;4996577;28;20438;-61
2021/06/24 05:57:11;;;;;;;7.20;6.60;;;20.70;99.90;;;;;;4996100;28;20459;-61
2021/06/24 05:59:38;;;;;;;6.53;6.13;;;20.60;99.90;;;;;;4996762;28;20473;-62
2021/06/24 06:02:06;;;;;;;6.77;6.37;;;20.40;99.90;;;;;;4995594;28;20481;-61
2021/06/24 06:04:33;;;;;;;7.10;6.60;;;20.40;99.90;;;;;;4996037;28;20445;-62
2021/06/24 06:07:00;;;;;;;9.80;6.70;;;20.30;99.90;;;;;;4995847;28;20453;-61
2021/06/24 06:09:28;;;;;;;7.50;6.90;;;20.20;99.90;;;;;;4995851;28;20461;-61
2021/06/24 06:11:55;;;;;;;8.00;7.30;;;20.30;99.90;;;;;;4995541;28;20474;-61
2021/06/24 06:14:21;;;;;;;6.60;6.10;;;20.30;99.90;;;;;;4995681;28;20461;-62
2021/06/24 06:16:48;;;;;;;6.80;6.40;;;20.30;99.90;;;;;;4995379;28;20511;-61
2021/06/24 06:19:16;;;;;;;6.87;6.37;;;20.50;99.90;;;;;;4995501;28;20798;-62
2021/06/24 06:21:43;;;;;;;7.23;6.73;;;20.70;99.90;;;;;;4995301;28;20480;-61
2021/06/24 06:24:10;;;;;;;7.20;6.80;;;20.70;99.90;;;;;;4995371;28;20453;-61
2021/06/24 06:26:36;;;;;;;7.27;6.77;;;20.50;99.90;;;;;;4995175;28;20461;-60
2021/06/24 06:29:03;;;;;;;7.60;6.80;;;20.60;99.90;;;;;;4994878;28;20800;-61
2021/06/24 06:31:31;;;;;;;7.17;6.60;;;20.60;99.90;;;;;;4995199;28;20473;-60
2021/06/24 06:33:58;;;;;;;9.80;6.90;;;20.50;99.90;;;;;;4994980;28;20480;-61
2021/06/24 06:36:26;;;;;;;7.40;6.80;;;20.30;99.90;;;;;;4995208;28;20461;-61
2021/06/24 06:38:53;;;;;;;7.80;7.20;;;20.20;99.90;;;;;;4995327;28;20460;-61
2021/06/24 06:41:19;;;;;;;6.90;6.50;;;20.10;99.90;;;;;;4995002;28;20845;-60
2021/06/24 06:43:46;;;;;;;6.40;6.00;;;20.10;99.90;;;;;;4995132;28;20462;-60
2021/06/24 06:46:13;;;;;;;6.27;5.87;;;20.10;99.90;;;;;;4995726;28;20458;-61
2021/06/24 06:48:40;;;;;;;6.53;5.47;;;20.20;99.90;;;;;;4996926;28;20438;-61
2021/06/24 06:51:07;;;;;;;5.67;5.27;;;20.30;99.90;;;;;;4997124;28;20477;-61
2021/06/24 06:53:35;;;;;;;5.50;5.10;;;20.30;99.90;;;;;;4996698;28;20458;-61
2021/06/24 06:56:02;;;;;;;6.53;6.13;;;20.60;99.90;;;;;;4994978;28;20464;-60
2021/06/24 06:58:28;;;;;;;6.33;5.93;;;20.70;99.90;;;;;;4994941;28;20457;-61
2021/06/24 07:00:55;;;;;;;6.30;5.90;;;20.60;99.90;;;;;;4994605;28;20492;-61
2021/06/24 07:03:22;;;;;;;5.40;5.00;;;20.80;99.90;;;;;;4994792;28;20454;-61
2021/06/24 07:05:48;;;;;;;5.17;4.87;;;20.90;99.90;;;;;;4995088;28;20520;-61
2021/06/24 07:08:15;;;;;;;5.43;4.93;;;21.10;99.90;;;;;;4994802;28;20450;-61
2021/06/24 07:10:43;;;;;;;5.57;5.27;;;21.20;99.90;;;;;;4994653;28;20828;-62
2021/06/24 07:13:10;;;;;;;6.33;5.80;;;21.20;99.90;;;;;;4994831;28;20481;-61
2021/06/24 07:15:36;;;;;;;5.40;5.10;;;21.20;99.90;;;;;;4994637;28;20453;-61
2021/06/24 07:18:03;;;;;;;5.10;4.80;;;21.10;99.90;;;;;;4994229;28;20454;-60
2021/06/24 07:20:30;;;;;;;6.80;5.70;;;21.10;99.90;;;;;;4994679;28;20466;-61
2021/06/24 07:22:57;;;;;;;5.47;5.00;;;21.20;99.90;;;;;;4994559;28;20458;-62
2021/06/24 07:25:23;;;;;;;4.10;3.90;;;21.10;99.90;;;;;;4994148;28;20956;-62
2021/06/24 07:27:52;;;;;;;6.30;5.87;;;21.10;99.90;;;;;;4994609;28;20457;-61
2021/06/24 07:30:20;;;;;;;4.73;4.43;;;21.10;99.90;;;;;;4995016;28;20481;-61
2021/06/24 07:32:47;;;;;;;4.93;4.63;;;21.10;99.90;;;;;;4994447;28;20458;-61
2021/06/24 07:35:14;;;;;;;4.60;4.20;;;21.30;99.90;;;;;;4994955;28;20488;-62
2021/06/24 07:37:42;;;;;;;3.40;3.20;;;21.60;99.90;;;;;;4995020;28;20454;-61
2021/06/24 07:40:10;;;;;;;4.47;4.27;;;21.70;99.90;;;;;;4994129;28;20842;-61
2021/06/24 07:42:37;;;;;;;4.70;4.40;;;21.80;99.90;;;;;;4994482;28;21000;-61
2021/06/24 07:45:06;;;;;;;4.23;3.93;;;22.10;99.90;;;;;;4994488;28;20454;-61
2021/06/24 07:47:33;;;;;;;3.30;3.20;;;22.50;99.90;;;;;;4994449;28;20457;-62
2021/06/24 07:49:59;;;;;;;4.10;3.80;;;23.10;99.90;;;;;;4994468;28;20450;-61
2021/06/24 07:52:26;;;;;;;3.50;3.40;;;23.80;99.90;;;;;;4994242;28;20477;-61
2021/06/24 07:54:53;;;;;;;3.20;3.10;;;24.50;99.90;;;;;;4994487;28;20438;-61
2021/06/24 07:57:20;;;;;;;2.70;2.60;;;24.80;99.90;;;;;;4994171;28;20457;-61
2021/06/24 07:59:47;;;;;;;3.57;3.27;;;25.90;99.90;;;;;;4994110;28;20473;-61
2021/06/24 08:02:15;;;;;;;4.10;3.67;;;26.70;99.90;;;;;;4994042;28;20481;-61
2021/06/24 08:04:42;;;;;;;3.13;2.83;;;26.80;99.90;;;;;;4994335;28;20438;-62
2021/06/24 08:07:10;;;;;;;3.47;3.30;;;27.30;99.90;;;;;;4994199;28;20464;-62
2021/06/24 08:09:37;;;;;;;3.70;3.47;;;26.70;99.90;;;;;;4994196;28;20528;-61
2021/06/24 08:12:04;;;;;;;4.27;3.97;;;27.30;99.90;;;;;;4994228;28;20488;-61
2021/06/24 08:14:31;;;;;;;3.53;3.33;;;26.30;99.90;;;;;;4993950;28;20453;-63
2021/06/24 08:16:58;;;;;;;5.10;3.67;;;26.30;99.90;;;;;;4993533;28;20867;-60
2021/06/24 08:19:26;;;;;;;4.10;3.60;;;26.20;99.90;;;;;;4993900;28;20442;-61
2021/06/24 08:21:58;;;;;;;3.20;3.10;;;26.30;99.90;;;;;;4993759;28;20489;-61
2021/06/24 08:24:25;;;;;;;3.10;3.00;;;27.20;99.90;;;;;;4993960;28;20442;-61
2021/06/24 08:26:51;;;;;;;3.20;3.10;;;27.50;99.90;;;;;;4994188;28;20553;-60
2021/06/24 08:29:18;;;;;;;2.87;2.67;;;27.60;99.90;;;;;;4993858;28;20453;-61
2021/06/24 08:31:45;;;;;;;3.20;2.60;;;27.40;99.90;;;;;;4997025;28;20517;-60
2021/06/24 08:34:12;;;;;;;3.10;2.90;;;27.60;99.90;;;;;;5000824;28;20819;-61
2021/06/24 08:36:40;;;;;;;2.93;2.80;;;27.60;99.90;;;;;;5001803;28;20450;-61
2021/06/24 08:39:07;;;;;;;5.40;3.10;;;27.40;99.90;;;;;;5000855;28;20442;-61
2021/06/24 08:41:33;;;;;;;3.27;3.03;;;27.30;99.90;;;;;;4999289;28;20988;-61
2021/06/24 08:44:01;;;;;;;3.20;3.10;;;26.80;99.90;;;;;;4997398;28;20462;-61
2021/06/24 08:46:27;;;;;;;3.63;2.90;;;26.90;99.90;;;;;;4997134;28;20571;-61
2021/06/24 08:48:55;;;;;;;3.53;3.23;;;26.90;99.90;;;;;;4996928;28;20549;-63
2021/06/24 08:51:22;;;;;;;2.90;2.80;;;27.00;99.90;;;;;;4997242;28;20469;-62
2021/06/24 08:53:50;;;;;;;3.10;2.90;;;27.40;99.90;;;;;;4997699;28;20460;-61
2021/06/24 08:56:17;;;;;;;2.90;2.70;;;27.60;99.90;;;;;;4997070;28;20449;-62
2021/06/24 08:58:46;;;;;;;3.43;3.23;;;28.00;99.90;;;;;;4997173;28;20453;-62
2021/06/24 09:01:12;;;;;;;2.60;2.40;;;28.70;99.90;;;;;;4996547;28;20486;-62
2021/06/24 09:03:39;;;;;;;3.03;2.87;;;29.30;99.90;;;;;;4996937;28;20458;-60
2021/06/24 09:06:08;;;;;;;2.60;2.50;;;29.80;99.90;;;;;;4996502;28;21003;-62
2021/06/24 09:08:41;;;;;;;5.53;2.40;;;30.50;99.90;;;;;;4996816;28;20549;-61
2021/06/24 09:11:11;;;;;;;2.60;2.40;;;30.70;99.90;;;;;;4996587;28;20469;-62
2021/06/24 09:13:38;;;;;;;2.60;2.50;;;30.30;99.90;;;;;;4996638;28;20445;-62
2021/06/24 09:16:06;;;;;;;2.20;2.10;;;30.80;98.80;;;;;;4996669;28;20826;-61
2021/06/24 09:18:32;;;;;;;2.43;2.33;;;30.40;96.90;;;;;;4997027;28;20485;-61
2021/06/24 09:21:04;;;;;;;2.10;2.00;;;30.10;97.80;;;;;;4996648;28;20493;-62
2021/06/24 09:23:34;;;;;;;2.60;2.50;;;29.30;99.90;;;;;;4996635;28;20465;-61
2021/06/24 09:26:13;;;;;;;3.30;3.10;;;28.20;97.60;;;;;;4996609;28;20438;-60
2021/06/24 09:28:41;;;;;;;2.30;2.20;;;27.40;99.80;;;;;;4996613;28;20444;-60
2021/06/24 09:31:22;;;;;;;2.83;2.73;;;26.90;99.90;;;;;;4996336;28;20547;-61
2021/06/24 09:33:49;;;;;;;2.70;2.60;;;26.10;99.90;;;;;;4996638;28;20853;-61
2021/06/24 09:36:32;;;;;;;4.37;2.80;;;25.90;99.90;;;;;;4996425;28;20461;-60
2021/06/24 09:38:59;;;;;;;2.90;2.70;;;25.40;99.90;;;;;;4996919;28;20465;-60
2021/06/24 09:41:27;;;;;;;4.03;3.67;;;25.10;99.90;;;;;;4995688;28;20490;-61
2021/06/24 09:43:55;;;;;;;2.80;2.70;;;25.00;99.90;;;;;;4995859;28;20859;-61
2021/06/24 09:46:23;;;;;;;3.53;3.23;;;24.60;99.90;;;;;;4996243;28;20508;-61
2021/06/24 09:48:53;;;;;;;3.60;3.30;;;24.50;99.90;;;;;;4996353;28;20493;-60
2021/06/24 09:51:21;;;;;;;3.20;3.00;;;24.20;99.90;;;;;;4996567;28;20474;-60
2021/06/24 09:53:51;;;;;;;3.80;3.50;;;24.10;99.90;;;;;;4995660;28;20458;-60
2021/06/24 09:56:42;;;;;;;4.40;4.20;;;23.90;99.90;;;;;;4995797;28;20576;-61
2021/06/24 09:59:09;;;;;;;4.17;3.87;;;24.00;99.90;;;;;;4995696;28;20440;-61
2021/06/24 10:01:38;;;;;;;4.17;3.97;;;24.10;99.90;;;;;;4995241;28;21011;-61
2021/06/24 10:04:18;;;;;;;4.17;3.87;;;24.10;99.90;;;;;;4995819;28;20486;-60
2021/06/24 10:06:45;;;;;;;4.50;4.20;;;24.10;99.90;;;;;;4995864;28;20442;-61
2021/06/24 10:09:12;;;;;;;3.77;3.57;;;23.80;99.90;;;;;;4995901;28;20461;-61
2021/06/24 10:11:40;;;;;;;3.43;3.23;;;23.70;99.90;;;;;;4996832;28;20835;-61
2021/06/24 10:14:08;;;;;;;3.90;3.70;;;24.20;99.90;;;;;;4998270;28;20508;-61
2021/06/24 10:16:34;;;;;;;3.23;3.03;;;25.00;99.90;;;;;;4996220;28;20457;-62
2021/06/24 10:19:03;;;;;;;4.07;3.77;;;26.00;99.90;;;;;;4995721;28;20461;-61
2021/06/24 10:21:32;;;;;;;4.50;4.13;;;26.80;99.90;;;;;;4995637;28;20517;-61
2021/06/24 10:24:03;;;;;;;4.70;4.30;;;27.30;99.90;;;;;;4996478;28;20805;-61
2021/06/24 10:26:31;;;;;;;4.73;4.43;;;27.30;99.90;;;;;;5000482;28;20441;-61
2021/06/24 10:29:17;;;;;;;4.80;4.47;;;27.30;99.90;;;;;;5000016;28;20529;-60
2021/06/24 10:31:45;;;;;;;4.10;3.90;;;27.20;99.90;;;;;;4999622;28;20528;-61
2021/06/24 10:34:13;;;;;;;3.73;3.53;;;27.10;99.90;;;;;;4996790;28;20460;-61
2021/06/24 10:36:40;;;;;;;3.37;3.10;;;27.40;99.90;;;;;;4996183;28;20624;-62
2021/06/24 10:39:07;;;;;;;3.30;3.10;;;27.30;99.90;;;;;;4995533;28;20453;-62
2021/06/24 10:42:04;;;;;;;4.03;3.17;;;27.30;99.90;;;;;;4996076;28;20488;-62
2021/06/24 10:44:49;;;;;;;2.50;2.40;;;27.50;99.90;;;;;;4996147;28;20446;-61
2021/06/24 10:47:30;;;;;;;4.17;3.60;;;27.50;99.90;;;;;;4995783;28;20952;-61
2021/06/24 10:50:37;;;;;;;3.50;3.20;;;27.10;99.90;;;;;;4995943;28;20541;-61
2021/06/24 10:53:40;;;;;;;3.83;3.63;;;26.90;99.90;;;;;;4994736;28;20446;-61
2021/06/24 10:56:26;;;;;;;3.43;3.23;;;26.70;99.90;;;;;;4995208;28;20493;-61
2021/06/24 10:58:53;;;;;;;3.47;3.27;;;26.80;99.90;;;;;;4995083;28;20466;-62
2021/06/24 11:01:42;;;;;;;3.53;3.33;;;26.80;99.90;;;;;;4995122;28;20482;-62
2021/06/24 11:04:10;;;;;;;3.50;3.30;;;26.90;99.90;;;;;;4995679;28;20449;-62
2021/06/24 11:06:41;;;;;;;3.90;3.60;;;27.00;99.90;;;;;;4995707;28;20481;-62
2021/06/24 11:09:16;;;;;;;3.70;3.50;;;27.00;99.90;;;;;;4994769;28;20438;-61
2021/06/24 11:11:44;;;;;;;3.23;3.03;;;27.30;99.90;;;;;;4995105;28;20469;-62
2021/06/24 11:14:14;;;;;;;3.70;3.37;;;27.90;99.90;;;;;;4995040;28;20438;-62
2021/06/24 11:16:43;;;;;;;3.20;3.00;;;28.30;99.90;;;;;;4994664;28;20552;-61
2021/06/24 11:19:11;;;;;;;2.90;2.80;;;28.80;99.90;;;;;;4995138;28;20458;-60
2021/06/24 11:21:55;;;;;;;3.13;2.93;;;28.40;99.90;;;;;;4994539;28;20977;-60
2021/06/24 11:24:28;;;;;;;2.50;2.30;;;28.00;99.90;;;;;;4994668;28;20433;-62
2021/06/24 11:26:57;;;;;;;2.73;2.60;;;27.80;99.90;;;;;;4994843;28;20445;-60
2021/06/24 11:32:16;;;;;;;2.20;2.10;;;27.40;99.90;;;;;;4994023;28;20468;-61
2021/06/24 11:34:55;;;;;;;7.80;2.10;;;27.20;99.90;;;;;;4994618;28;20478;-61
2021/06/24 11:37:24;;;;;;;2.30;2.10;;;27.10;99.90;;;;;;4994602;28;20536;-61
2021/06/24 11:39:53;;;;;;;2.13;2.00;;;26.50;99.90;;;;;;4994694;28;20453;-61
2021/06/24 11:42:23;;;;;;;2.33;1.80;;;26.30;99.90;;;;;;4994332;28;20478;-62
2021/06/24 11:44:52;;;;;;;1.83;1.73;;;26.70;99.90;;;;;;4995086;28;20438;-62
2021/06/24 11:47:21;;;;;;;2.17;2.07;;;27.10;99.90;;;;;;4997792;28;20454;-60
2021/06/24 12:04:02;;;;;;;1.40;1.30;;;27.50;99.90;;;;;;4993598;28;20944;-61
2021/06/24 12:06:45;;;;;;;1.23;1.23;;;27.70;99.90;;;;;;5002030;28;20854;-61
2021/06/24 12:09:12;;;;;;;1.30;1.30;;;27.80;97.70;;;;;;4999938;28;20465;-61
2021/06/24 12:11:41;;;;;;;1.70;1.60;;;28.00;98.40;;;;;;5001201;28;20473;-61
2021/06/24 12:14:19;;;;;;;1.63;1.60;;;27.30;98.40;;;;;;4998446;28;20456;-61
2021/06/24 12:17:10;;;;;;;1.50;1.50;;;27.30;99.40;;;;;;4998268;28;20449;-62
2021/06/24 12:20:07;;;;;;;1.60;1.50;;;27.00;99.40;;;;;;4998444;28;20444;-61
2021/06/24 12:22:48;;;;;;;1.60;1.60;;;26.80;98.30;;;;;;4998525;28;20521;-61
2021/06/24 12:25:17;;;;;;;1.40;1.40;;;26.60;99.40;;;;;;5000191;28;20847;-61
2021/06/24 12:27:45;;;;;;;1.40;1.30;;;26.40;99.90;;;;;;4999454;28;20489;-60
2021/06/24 12:30:15;;;;;;;1.70;1.60;;;26.30;99.90;;;;;;5000465;28;20460;-61
2021/06/24 12:32:53;;;;;;;1.57;1.47;;;26.10;99.90;;;;;;5000398;28;20476;-61
2021/06/24 12:35:24;;;;;;;1.40;1.40;;;26.00;99.90;;;;;;5003222;28;20484;-61
2021/06/24 12:37:52;;;;;;;2.13;1.30;;;25.80;99.90;;;;;;4999220;28;20438;-62
2021/06/24 12:40:21;;;;;;;2.10;2.00;;;25.60;99.90;;;;;;4999311;28;20817;-61
2021/06/24 12:42:51;;;;;;;1.80;1.80;;;25.50;99.90;;;;;;4999161;28;20480;-61
2021/06/24 12:45:20;;;;;;;1.57;1.57;;;25.50;99.90;;;;;;4998269;28;20453;-61
2021/06/24 12:47:48;;;;;;;1.60;1.60;;;25.70;99.90;;;;;;4998956;28;20520;-61
2021/06/24 12:50:22;;;;;;;2.17;1.63;;;25.70;99.90;;;;;;4998876;28;20512;-61
2021/06/24 12:52:54;;;;;;;1.63;1.63;;;25.80;99.90;;;;;;4998596;28;20444;-61
2021/06/24 12:55:40;;;;;;;1.53;1.53;;;25.80;99.90;;;;;;4998142;28;20469;-61
2021/06/24 12:58:09;;;;;;;1.70;1.60;;;25.60;99.90;;;;;;4998925;28;20465;-61
2021/06/24 13:00:37;;;;;;;1.50;1.40;;;25.60;99.90;;;;;;4998072;28;20520;-61
2021/06/24 13:03:04;;;;;;;1.43;1.33;;;25.50;99.90;;;;;;4998116;28;20545;-62
2021/06/24 13:05:34;;;;;;;1.40;1.33;;;25.40;99.90;;;;;;4997865;28;20449;-62
2021/06/24 13:08:04;;;;;;;1.80;1.10;;;25.50;99.90;;;;;;4998510;28;20462;-61
2021/06/24 13:10:43;;;;;;;1.43;1.43;;;25.80;99.90;;;;;;4998568;28;20461;-66
2021/06/24 13:13:09;;;;;;;5.60;1.30;;;26.10;99.90;;;;;;4997935;28;20434;-61
2021/06/24 13:15:39;;;;;;;1.33;1.23;;;26.30;99.90;;;;;;4996753;28;20442;-65
2021/06/24 13:18:06;;;;;;;1.63;1.53;;;26.50;99.90;;;;;;4997730;28;20497;-61
2021/06/24 13:20:34;;;;;;;2.67;1.23;;;26.70;99.90;;;;;;4997429;28;20460;-61
2021/06/24 13:23:08;;;;;;;1.17;1.17;;;26.90;99.90;;;;;;4998907;28;20477;-60
2021/06/24 13:25:41;;;;;;;3.60;1.70;;;27.00;99.90;;;;;;4998168;28;20457;-61
2021/06/24 13:28:09;;;;;;;2.23;1.10;;;27.30;99.90;;;;;;4998583;28;20488;-60
2021/06/24 13:30:40;;;;;;;1.27;1.27;;;27.50;99.90;;;;;;4997753;28;20560;-60
2021/06/24 13:33:07;;;;;;;1.10;1.10;;;27.70;99.90;;;;;;4997711;28;20442;-60
2021/06/24 13:35:38;;;;;;;1.27;1.17;;;27.80;99.90;;;;;;4997184;28;20629;-62
2021/06/24 13:38:09;;;;;;;2.00;1.33;;;27.50;99.90;;;;;;4997649;28;20474;-62
2021/06/24 13:40:38;;;;;;;5.53;1.33;;;27.30;99.90;;;;;;4996912;28;20473;-62
2021/06/24 13:43:07;;;;;;;1.83;1.70;;;27.00;99.90;;;;;;4997199;28;20484;-62
2021/06/24 13:45:34;;;;;;;1.90;1.63;;;26.70;99.90;;;;;;4997168;28;20485;-61
2021/06/24 13:48:01;;;;;;;2.30;1.50;;;26.40;99.90;;;;;;4997316;28;20461;-62
2021/06/24 13:50:29;;;;;;;2.73;1.60;;;26.10;99.90;;;;;;4996754;28;20461;-61
2021/06/24 13:52:57;;;;;;;3.80;1.80;;;25.70;99.90;;;;;;4996787;28;20453;-61
2021/06/24 13:55:23;;;;;;;3.43;1.97;;;25.30;99.90;;;;;;4996460;28;20461;-61
2021/06/24 13:57:50;;;;;;;2.50;2.13;;;25.00;99.90;;;;;;4996721;28;20835;-61
2021/06/24 14:00:18;;;;;;;4.63;2.20;;;24.70;99.90;;;;;;4996747;28;20493;-61
2021/06/24 14:02:45;;;;;;;1.83;1.73;;;24.40;99.90;;;;;;4997831;28;20493;-60
2021/06/24 14:05:12;;;;;;;1.83;1.83;;;24.40;99.90;;;;;;4996780;28;20480;-61
2021/06/24 14:07:39;;;;;;;1.60;1.50;;;24.30;99.90;;;;;;4996584;28;20445;-62
2021/06/24 14:10:07;;;;;;;2.47;2.37;;;24.10;99.90;;;;;;4996374;28;20458;-60
2021/06/24 14:12:35;;;;;;;13.10;2.80;;;24.00;99.90;;;;;;4996563;28;20836;-61
2021/06/24 14:15:02;;;;;;;2.03;1.93;;;23.80;99.90;;;;;;4996931;28;20454;-60
2021/06/24 14:17:30;;;;;;;1.70;1.60;;;23.60;99.90;;;;;;4996435;28;20521;-61
2021/06/24 14:19:57;;;;;;;2.03;1.90;;;23.50;99.90;;;;;;4996704;28;20502;-63
2021/06/24 14:22:23;;;;;;;3.80;1.60;;;23.30;99.90;;;;;;4996577;28;20486;-60
2021/06/24 14:24:50;;;;;;;1.67;1.67;;;23.10;99.90;;;;;;4996559;28;20458;-61
2021/06/24 14:27:18;;;;;;;1.97;1.87;;;23.00;99.90;;;;;;4995160;28;20454;-61
2021/06/24 14:29:45;;;;;;;2.27;2.13;;;22.90;99.90;;;;;;4995258;28;20534;-61
2021/06/24 14:32:11;;;;;;;3.50;2.70;;;22.80;99.90;;;;;;4995820;28;20477;-62
2021/06/24 14:34:38;;;;;;;1.67;1.67;;;22.60;99.90;;;;;;4996233;28;20465;-61
2021/06/24 14:37:05;;;;;;;4.33;2.00;;;22.60;99.90;;;;;;4995567;28;20450;-61
2021/06/24 14:39:31;;;;;;;2.03;2.00;;;22.60;99.90;;;;;;4995372;28;20457;-62
2021/06/24 14:41:58;;;;;;;2.77;2.40;;;22.70;99.90;;;;;;4995045;28;20482;-61
2021/06/24 14:44:26;;;;;;;2.40;2.23;;;22.50;99.90;;;;;;4995550;28;20457;-62
2021/06/24 14:46:53;;;;;;;2.53;2.30;;;22.50;99.90;;;;;;4995584;28;20457;-61
2021/06/24 14:49:20;;;;;;;3.60;2.30;;;22.40;99.90;;;;;;4995985;28;20453;-61
2021/06/24 14:51:46;;;;;;;2.53;2.43;;;22.40;99.90;;;;;;4996205;28;20565;-62
2021/06/24 14:54:13;;;;;;;2.40;2.30;;;22.10;99.90;;;;;;4996130;28;20817;-61
2021/06/24 14:56:40;;;;;;;3.03;2.83;;;22.20;99.90;;;;;;4996220;28;20458;-61
2021/06/24 14:59:07;;;;;;;2.53;2.20;;;22.20;99.90;;;;;;4996239;28;20505;-61
2021/06/24 15:01:35;;;;;;;3.40;3.10;;;22.20;99.90;;;;;;4995622;28;20493;-61
2021/06/24 15:04:02;;;;;;;4.87;2.43;;;22.20;99.90;;;;;;4995227;28;20427;-61
2021/06/24 15:06:29;;;;;;;2.00;1.90;;;22.30;99.90;;;;;;4994625;28;20450;-61
2021/06/24 15:08:58;;;;;;;1.70;1.60;;;22.20;99.90;;;;;;4994910;28;20457;-61
2021/06/24 15:11:25;;;;;;;2.30;2.20;;;22.20;99.90;;;;;;4994763;28;20562;-61
2021/06/24 15:13:52;;;;;;;2.20;2.00;;;22.30;99.90;;;;;;4995587;28;20453;-61
2021/06/24 15:16:19;;;;;;;2.37;2.27;;;22.40;99.90;;;;;;4995585;28;20457;-61
2021/06/24 15:18:47;;;;;;;2.60;2.40;;;22.50;99.90;;;;;;4995373;28;20465;-61
2021/06/24 15:21:14;;;;;;;3.17;2.23;;;22.70;99.90;;;;;;4995947;28;20480;-60
2021/06/24 15:23:41;;;;;;;2.50;2.40;;;22.80;99.90;;;;;;4995658;28;20481;-61
2021/06/24 15:26:08;;;;;;;2.23;2.13;;;23.00;99.90;;;;;;4995152;28;20825;-62
2021/06/24 15:28:35;;;;;;;1.80;1.70;;;23.00;99.90;;;;;;4994687;28;20461;-62
2021/06/24 15:31:05;;;;;;;2.03;1.80;;;23.00;99.90;;;;;;4994404;28;20476;-61
2021/06/24 15:33:32;;;;;;;1.70;1.60;;;23.00;99.90;;;;;;4994578;28;20434;-61
2021/06/24 15:36:00;;;;;;;1.50;1.50;;;22.90;99.90;;;;;;4994645;28;20460;-62
2021/06/24 15:38:27;;;;;;;2.00;1.90;;;23.00;99.90;;;;;;4994446;28;20464;-61
2021/06/24 15:40:54;;;;;;;2.93;2.17;;;22.90;99.90;;;;;;4998153;28;20536;-61
2021/06/24 15:43:20;;;;;;;2.47;2.27;;;23.00;99.90;;;;;;4997954;28;20473;-60
2021/06/24 15:45:47;;;;;;;3.40;2.57;;;23.00;99.90;;;;;;4998127;28;21129;-61
2021/06/24 15:48:14;;;;;;;3.03;2.80;;;23.00;99.90;;;;;;4999105;28;20454;-61
2021/06/24 15:50:41;;;;;;;3.53;3.20;;;22.90;99.90;;;;;;4998427;28;20855;-62
2021/06/24 15:53:09;;;;;;;3.30;3.00;;;22.90;99.90;;;;;;4998203;28;20460;-62
2021/06/24 15:55:39;;;;;;;3.50;2.67;;;22.60;99.90;;;;;;4998315;28;20458;-61
2021/06/24 15:58:08;;;;;;;2.50;2.40;;;22.70;99.90;;;;;;4998802;28;20441;-62
2021/06/24 16:00:35;;;;;;;2.70;2.50;;;22.90;99.90;;;;;;4999306;28;20473;-61
2021/06/24 16:03:02;;;;;;;3.13;2.93;;;23.00;99.90;;;;;;4999413;28;20469;-61
2021/06/24 16:05:29;;;;;;;3.00;2.80;;;23.10;99.90;;;;;;4999412;28;20450;-61
2021/06/24 16:07:55;;;;;;;3.37;3.10;;;23.20;99.90;;;;;;4999289;28;20454;-61
2021/06/24 16:10:24;;;;;;;3.40;3.10;;;23.20;99.90;;;;;;4998841;28;20940;-61
2021/06/24 16:12:51;;;;;;;3.43;3.23;;;23.30;99.90;;;;;;4999282;28;20450;-61
2021/06/24 16:15:18;;;;;;;2.70;2.50;;;23.40;99.90;;;;;;4999263;28;20819;-61
2021/06/24 16:17:45;;;;;;;5.10;3.20;;;23.30;99.90;;;;;;4998402;28;20516;-63
2021/06/24 16:20:15;;;;;;;4.00;3.60;;;23.30;99.90;;;;;;4997680;28;20937;-61
2021/06/24 16:22:42;;;;;;;3.20;3.00;;;23.40;99.90;;;;;;4997340;28;20482;-62
2021/06/24 16:25:11;;;;;;;3.10;2.90;;;23.50;99.90;;;;;;4997606;28;20945;-62
2021/06/24 16:27:44;;;;;;;5.30;3.43;;;23.40;99.90;;;;;;4998181;28;20465;-62
2021/06/24 16:30:12;;;;;;;3.00;2.80;;;23.40;99.90;;;;;;4998317;28;20442;-61
2021/06/24 16:32:40;;;;;;;3.43;3.33;;;23.50;99.90;;;;;;4997798;28;20474;-62
2021/06/24 16:35:08;;;;;;;3.73;3.43;;;23.40;99.90;;;;;;4997597;28;20457;-62
2021/06/24 16:37:35;;;;;;;3.97;3.77;;;23.30;99.90;;;;;;4997512;28;20455;-61
2021/06/24 16:40:02;;;;;;;4.00;3.70;;;23.50;99.90;;;;;;4998070;28;20468;-63
2021/06/24 16:42:28;;;;;;;2.70;2.50;;;23.60;99.90;;;;;;4997229;28;20490;-61
2021/06/24 16:44:56;;;;;;;3.83;3.63;;;23.60;99.90;;;;;;4997173;28;20458;-61
2021/06/24 16:47:23;;;;;;;4.00;3.70;;;23.50;99.90;;;;;;4998064;28;20470;-62
2021/06/24 16:49:50;;;;;;;2.93;2.83;;;23.30;99.90;;;;;;4997261;28;20458;-62
2021/06/24 16:52:17;;;;;;;3.77;3.43;;;23.30;99.90;;;;;;4995829;28;21005;-62
2021/06/24 16:54:43;;;;;;;3.60;3.50;;;23.40;99.90;;;;;;5001037;28;20460;-62
2021/06/24 16:57:10;;;;;;;3.33;3.13;;;23.40;99.90;;;;;;5000963;28;20498;-62
2021/06/24 16:59:37;;;;;;;3.57;3.30;;;23.50;99.90;;;;;;4998160;28;20460;-63
2021/06/24 17:02:07;;;;;;;3.83;3.43;;;23.60;99.90;;;;;;4997201;28;20490;-61
2021/06/24 17:04:44;;;;;;;5.10;4.17;;;23.60;99.90;;;;;;4996997;28;21050;-62
2021/06/24 17:07:12;;;;;;;4.17;3.80;;;23.60;99.90;;;;;;4997962;28;20452;-63
2021/06/24 17:09:39;;;;;;;4.03;3.83;;;23.30;99.90;;;;;;4997926;28;20546;-62
2021/06/24 17:12:06;;;;;;;3.70;3.50;;;23.30;99.90;;;;;;4997699;28;20480;-62